Time;durP1;ratioP1;P1;durP2;ratioP2;P2;SDS_P1;SDS_P2;PMS_P1;PMS_P2;Temp;Humidity;BMP_temperature;BMP_pressure;BME280_temperature;BME280_humidity;BME280_pressure;Samples;Min_cycle;Max_cycle;Signal;HPM_P1;HPM_P2
2020/12/01 00:01:51;;;;;;;11.77;4.63;;;;;;;18.06;36.74;102726.59;5074134;28;20077;-95
2020/12/01 00:04:18;;;;;;;10.07;4.28;;;;;;;17.92;36.87;102721.97;5073522;28;20056;-83
2020/12/01 00:06:43;;;;;;;12.27;3.67;;;;;;;17.75;36.93;102730.13;5077037;28;20152;-84
2020/12/01 00:09:09;;;;;;;11.98;4.18;;;;;;;17.47;37.47;102727.44;5077707;28;20125;-93
2020/12/01 00:11:35;;;;;;;14.18;4.03;;;;;;;17.09;38.38;102729.69;5078771;28;20490;-83
2020/12/01 00:14:00;;;;;;;9.20;4.05;;;;;;;17.00;38.55;102727.94;5077033;28;20032;-95
2020/12/01 00:16:26;;;;;;;11.35;3.58;;;;;;;17.40;37.75;102721.53;5078545;28;20154;-83
2020/12/01 00:18:51;;;;;;;15.48;4.18;;;;;;;17.71;37.24;102731.91;5076607;28;20033;-83
2020/12/01 00:21:19;;;;;;;6.22;3.05;;;;;;;17.87;36.83;102730.38;5077436;28;20060;-95
2020/12/01 00:23:46;;;;;;;12.30;3.75;;;;;;;17.95;36.58;102737.94;5075964;28;20143;-82
2020/12/01 00:26:17;;;;;;;16.35;3.70;;;;;;;17.92;36.68;102737.75;5079092;28;20033;-83
2020/12/01 00:28:43;;;;;;;10.98;3.80;;;;;;;17.94;36.70;102735.47;5071990;28;20402;-84
2020/12/01 00:31:09;;;;;;;12.80;3.30;;;;;;;18.06;36.67;102730.22;5077607;28;20039;-95
2020/12/01 00:33:35;;;;;;;12.48;3.50;;;;;;;18.14;36.55;102726.69;5079553;28;20542;-84
2020/12/01 00:36:01;;;;;;;12.60;4.85;;;;;;;18.11;36.72;102734.78;5077176;28;20032;-83
2020/12/01 00:38:26;;;;;;;17.95;3.40;;;;;;;18.15;36.46;102733.84;5077149;28;20039;-89
2020/12/01 00:40:52;;;;;;;10.98;3.30;;;;;;;17.78;37.40;102746.09;5076368;28;20520;-89
2020/12/01 00:43:18;;;;;;;10.65;3.42;;;;;;;18.20;36.77;102747.50;5078342;28;20036;-95
2020/12/01 00:45:44;;;;;;;12.98;3.95;;;;;;;18.32;36.29;102757.19;5077531;28;20390;-93
2020/12/01 00:48:14;;;;;;;12.52;3.40;;;;;;;18.36;36.19;102747.13;5076568;28;20028;-95
2020/12/01 00:50:40;;;;;;;9.43;3.03;;;;;;;18.42;36.68;102746.66;5076558;28;20029;-83
2020/12/01 00:53:06;;;;;;;10.52;3.00;;;;;;;18.35;36.59;102746.31;5078370;28;20360;-95
2020/12/01 00:55:32;;;;;;;12.98;3.72;;;;;;;18.21;36.91;102749.19;5078538;28;20525;-82
2020/12/01 00:57:58;;;;;;;13.40;3.33;;;;;;;18.29;36.88;102736.53;5077773;28;20032;-83
2020/12/01 01:00:27;;;;;;;12.95;3.15;;;;;;;18.55;36.37;102736.63;5078007;28;20631;-90
2020/12/01 01:02:53;;;;;;;10.73;2.95;;;;;;;18.48;36.61;102742.63;5075296;28;20028;-83
2020/12/01 01:05:19;;;;;;;12.93;3.72;;;;;;;18.69;36.23;102764.25;5075154;28;20050;-83
2020/12/01 01:07:45;;;;;;;11.23;3.47;;;;;;;18.63;36.40;102758.00;5077550;28;20078;-94
2020/12/01 01:10:15;;;;;;;12.45;3.80;;;;;;;18.68;36.19;102754.31;5077695;28;20032;-83
2020/12/01 01:12:41;;;;;;;14.80;3.47;;;;;;;18.70;36.58;102752.88;5075670;28;20052;-83
2020/12/01 01:15:07;;;;;;;15.15;3.42;;;;;;;18.98;35.84;102750.69;5077453;28;20032;-83
2020/12/01 01:17:32;;;;;;;11.85;3.55;;;;;;;19.27;35.60;102755.66;5076215;28;20029;-85
2020/12/01 01:19:58;;;;;;;13.88;4.30;;;;;;;19.21;35.58;102758.88;5075738;28;20406;-83
2020/12/01 01:22:23;;;;;;;21.25;3.90;;;;;;;19.01;35.86;102763.88;5075489;28;20054;-89
2020/12/01 01:24:49;;;;;;;17.50;4.03;;;;;;;19.38;35.10;102768.03;5076062;28;20052;-82
2020/12/01 01:27:15;;;;;;;13.80;3.90;;;;;;;19.48;35.17;102766.91;5076534;28;20020;-82
2020/12/01 01:29:40;;;;;;;11.80;3.92;;;;;;;19.46;34.94;102766.41;5075784;28;20031;-83
2020/12/01 01:32:06;;;;;;;15.68;5.50;;;;;;;19.46;35.18;102763.66;5074887;28;20032;-82
2020/12/01 01:34:32;;;;;;;8.88;3.08;;;;;;;19.40;35.20;102760.22;5077751;28;20520;-89
2020/12/01 01:36:57;;;;;;;12.10;2.88;;;;;;;19.43;35.31;102757.94;5075214;28;20515;-83
2020/12/01 01:39:23;;;;;;;13.48;4.57;;;;;;;19.43;35.21;102750.44;5076861;28;20029;-84
2020/12/01 01:41:48;;;;;;;9.77;3.30;;;;;;;19.21;35.58;102751.38;5075321;28;20051;-83
2020/12/01 01:44:27;;;;;;;14.05;3.90;;;;;;;19.71;34.72;102753.72;5075561;28;20029;-82
2020/12/01 01:46:58;;;;;;;11.68;4.72;;;;;;;18.93;35.89;102755.53;5074647;28;20386;-84
2020/12/01 01:49:35;;;;;;;10.18;3.25;;;;;;;19.42;35.09;102762.66;5074569;28;20031;-83
2020/12/01 01:52:01;;;;;;;12.55;3.70;;;;;;;19.58;34.90;102763.06;5074682;28;20067;-95
2020/12/01 01:54:27;;;;;;;10.85;3.65;;;;;;;19.45;34.89;102750.94;5076731;28;20024;-84
2020/12/01 01:56:57;;;;;;;12.80;3.38;;;;;;;19.28;35.43;102757.28;5074730;28;20028;-84
2020/12/01 01:59:25;;;;;;;11.93;3.33;;;;;;;19.22;35.54;102757.75;5074629;28;20024;-89
2020/12/01 02:01:52;;;;;;;11.77;3.50;;;;;;;19.06;35.93;102757.38;5075093;28;20031;-95
2020/12/01 02:04:19;;;;;;;14.40;4.03;;;;;;;18.97;36.14;102762.09;5074866;28;20482;-94
2020/12/01 02:06:51;;;;;;;12.48;3.17;;;;;;;19.00;36.09;102765.03;5075225;28;20031;-83
2020/12/01 02:09:32;;;;;;;9.52;3.42;;;;;;;19.21;35.79;102748.63;5073850;28;20024;-83
2020/12/01 02:12:01;;;;;;;11.57;3.28;;;;;;;19.13;36.03;102743.88;5073525;28;20063;-95
2020/12/01 02:14:32;;;;;;;16.75;5.28;;;;;;;19.14;35.82;102751.06;5074507;28;20029;-96
2020/12/01 02:17:11;;;;;;;12.15;3.50;;;;;;;18.90;36.35;102742.34;5073115;28;20040;-95
2020/12/01 02:19:37;;;;;;;14.27;4.22;;;;;;;18.85;36.54;102741.34;5074369;28;20071;-96
2020/12/01 02:22:05;;;;;;;13.68;3.83;;;;;;;18.76;36.60;102745.22;5072710;28;20037;-83
2020/12/01 02:24:31;;;;;;;14.52;4.97;;;;;;;18.75;36.81;102747.19;5072307;28;20498;-96
2020/12/01 02:26:59;;;;;;;12.48;4.70;;;;;;;18.80;36.84;102752.56;5073926;28;20055;-95
2020/12/01 02:29:29;;;;;;;15.07;4.13;;;;;;;18.77;36.88;102752.41;5071920;28;20055;-83
2020/12/01 02:31:55;;;;;;;10.48;3.20;;;;;;;18.87;36.96;102751.28;5074222;28;20086;-83
2020/12/01 02:34:30;;;;;;;11.38;3.85;;;;;;;18.82;36.98;102750.31;5072862;28;20035;-96
2020/12/01 02:36:55;;;;;;;11.77;4.47;;;;;;;18.89;37.01;102741.50;5072844;28;20028;-83
2020/12/01 02:39:22;;;;;;;11.13;3.38;;;;;;;18.95;36.88;102742.19;5072843;28;20035;-83
2020/12/01 02:41:50;;;;;;;10.70;3.08;;;;;;;18.89;37.06;102737.94;5072627;28;20032;-83
2020/12/01 02:44:16;;;;;;;9.73;3.78;;;;;;;18.63;37.72;102741.41;5072586;28;20131;-83
2020/12/01 02:46:42;;;;;;;15.07;4.35;;;;;;;18.44;37.73;102749.97;5073207;28;20032;-92
2020/12/01 02:49:08;;;;;;;14.93;5.18;;;;;;;18.89;37.35;102747.06;5074717;28;20036;-83
2020/12/01 02:51:35;;;;;;;8.07;3.20;;;;;;;18.88;36.91;102753.72;5072363;28;20101;-83
2020/12/01 02:54:01;;;;;;;10.38;4.65;;;;;;;18.93;36.91;102756.38;5072571;28;20389;-95
2020/12/01 02:56:27;;;;;;;12.95;4.13;;;;;;;18.73;37.35;102757.75;5072666;28;20389;-83
2020/12/01 02:58:53;;;;;;;10.60;3.65;;;;;;;18.59;37.59;102757.03;5072933;28;20024;-83
2020/12/01 03:01:19;;;;;;;10.43;4.82;;;;;;;18.61;37.67;102743.69;5072068;28;20062;-81
2020/12/01 03:03:45;;;;;;;16.80;4.50;;;;;;;18.12;38.58;102747.47;5073487;28;20080;-83
2020/12/01 03:06:13;;;;;;;10.07;3.65;;;;;;;18.14;38.17;102748.81;5072379;28;20020;-82
2020/12/01 03:08:40;;;;;;;11.43;3.70;;;;;;;18.26;38.40;102745.44;5072641;28;20024;-94
2020/12/01 03:11:07;;;;;;;10.43;4.03;;;;;;;18.32;37.99;102746.13;5072450;28;20119;-83
2020/12/01 03:13:33;;;;;;;10.32;4.40;;;;;;;18.25;38.37;102754.88;5072338;28;20031;-84
2020/12/01 03:16:04;;;;;;;8.35;3.83;;;;;;;18.46;37.92;102757.94;5072456;28;20024;-84
2020/12/01 03:18:30;;;;;;;11.90;3.60;;;;;;;18.64;37.58;102751.34;5072629;28;20367;-95
2020/12/01 03:20:55;;;;;;;9.65;3.72;;;;;;;18.39;37.96;102749.25;5072795;28;20044;-83
2020/12/01 03:23:21;;;;;;;10.20;4.38;;;;;;;18.86;37.19;102750.47;5071882;28;20403;-95
2020/12/01 03:25:47;;;;;;;8.60;3.40;;;;;;;19.00;36.81;102745.63;5073301;28;20039;-82
2020/12/01 03:28:12;;;;;;;13.73;3.55;;;;;;;19.01;36.88;102747.25;5071830;28;20039;-84
2020/12/01 03:30:38;;;;;;;12.13;3.72;;;;;;;18.87;37.03;102749.34;5105735;28;20482;-94
2020/12/01 03:33:04;;;;;;;10.63;4.15;;;;;;;18.84;37.13;102750.81;5071376;28;20503;-83
2020/12/01 03:35:29;;;;;;;14.40;4.88;;;;;;;18.88;37.24;102753.72;5071886;28;20031;-83
2020/12/01 03:37:55;;;;;;;11.13;3.95;;;;;;;18.87;37.15;102752.09;5071942;28;20032;-83
2020/12/01 03:40:22;;;;;;;14.45;4.20;;;;;;;18.84;37.14;102750.81;5074432;28;20035;-96
2020/12/01 03:42:47;;;;;;;9.40;3.97;;;;;;;19.12;36.80;102753.34;5077437;28;20025;-95
2020/12/01 03:45:13;;;;;;;9.15;3.80;;;;;;;19.03;36.73;102760.78;5076215;28;20509;-83
2020/12/01 03:47:39;;;;;;;14.80;3.88;;;;;;;19.09;36.99;102767.81;5076329;28;20094;-96
2020/12/01 03:50:06;;;;;;;12.55;4.78;;;;;;;18.98;37.08;102767.31;5076200;28;20017;-95
2020/12/01 03:52:31;;;;;;;9.13;3.50;;;;;;;19.20;36.59;102771.13;5076017;28;20115;-83
2020/12/01 03:54:57;;;;;;;10.30;4.10;;;;;;;19.24;36.51;102778.44;5077633;28;20385;-95
2020/12/01 03:57:23;;;;;;;12.55;4.25;;;;;;;19.19;36.63;102775.81;5076102;28;20034;-83
2020/12/01 03:59:48;;;;;;;7.38;3.80;;;;;;;19.22;36.56;102769.66;5075961;28;20111;-83
2020/12/01 04:02:14;;;;;;;14.98;4.63;;;;;;;19.27;36.47;102766.72;5075717;28;20058;-82
2020/12/01 04:04:39;;;;;;;14.40;4.70;;;;;;;19.18;36.90;102788.03;5075477;28;20030;-83
2020/12/01 04:07:05;;;;;;;9.65;3.45;;;;;;;19.28;36.60;102776.69;5076782;28;20032;-83
2020/12/01 04:09:31;;;;;;;10.48;3.40;;;;;;;19.15;36.80;102785.13;5075466;28;20071;-96
2020/12/01 04:11:56;;;;;;;9.90;3.75;;;;;;;19.20;36.47;102788.56;5075767;28;20021;-83
2020/12/01 04:14:22;;;;;;;10.23;3.50;;;;;;;19.24;36.62;102792.31;5075750;28;20509;-86
2020/12/01 04:16:48;;;;;;;13.70;3.85;;;;;;;19.24;36.64;102799.81;5076023;28;20025;-83
2020/12/01 04:19:13;;;;;;;9.43;2.95;;;;;;;19.33;36.52;102801.44;5075199;28;20036;-83
2020/12/01 04:21:40;;;;;;;17.13;3.72;;;;;;;19.25;36.61;102793.94;5075516;28;20055;-96
2020/12/01 04:24:06;;;;;;;14.85;3.67;;;;;;;19.31;36.46;102792.66;5076503;28;20491;-83
2020/12/01 04:26:32;;;;;;;15.60;3.80;;;;;;;19.21;36.74;102783.84;5075739;28;20044;-87
2020/12/01 04:28:58;;;;;;;12.25;3.85;;;;;;;18.76;37.46;102784.00;5077100;28;20031;-96
2020/12/01 04:31:23;;;;;;;15.02;3.95;;;;;;;18.64;37.91;102776.25;5075440;28;20163;-83
2020/12/01 04:33:49;;;;;;;15.13;3.83;;;;;;;18.53;38.05;102778.50;5076346;28;20387;-94
2020/12/01 04:36:15;;;;;;;12.18;3.78;;;;;;;18.31;38.34;102775.75;5075456;28;20074;-95
2020/12/01 04:38:40;;;;;;;11.32;3.83;;;;;;;18.61;37.92;102763.06;5076356;28;20367;-84
2020/12/01 04:41:09;;;;;;;11.93;3.50;;;;;;;18.28;38.23;102760.59;5074786;28;20021;-95
2020/12/01 04:43:42;;;;;;;10.05;3.17;;;;;;;18.73;37.41;102762.47;5075325;28;20507;-83
2020/12/01 04:46:18;;;;;;;10.02;3.03;;;;;;;18.31;37.96;102756.38;5075540;28;20381;-94
2020/12/01 04:48:48;;;;;;;9.23;2.90;;;;;;;18.21;38.47;102753.88;5075282;28;20107;-83
2020/12/01 04:51:23;;;;;;;13.90;3.70;;;;;;;18.07;38.49;102740.13;5074351;28;20101;-83
2020/12/01 04:54:07;;;;;;;15.30;4.07;;;;;;;18.01;38.78;102735.84;5074715;28;20486;-83
2020/12/01 04:56:42;;;;;;;11.70;3.50;;;;;;;18.01;38.70;102744.97;5074935;28;20048;-84
2020/12/01 04:59:24;;;;;;;11.70;3.63;;;;;;;17.65;39.23;102746.94;5075007;28;20060;-96
2020/12/01 05:02:02;;;;;;;15.25;4.22;;;;;;;17.83;38.85;102740.44;5075810;28;20029;-83
2020/12/01 05:04:33;;;;;;;13.80;3.40;;;;;;;17.80;38.90;102754.06;5074796;28;20086;-92
2020/12/01 05:07:46;;;;;;;9.00;3.50;;;;;;;18.19;37.97;102751.41;5074761;28;20027;-95
2020/12/01 05:10:14;;;;;;;10.88;3.60;;;;;;;18.35;37.42;102751.03;5053728;28;20032;-83
2020/12/01 05:12:56;;;;;;;18.10;4.85;;;;;;;18.38;37.22;102750.41;5053417;28;20124;-93
2020/12/01 05:15:27;;;;;;;20.10;5.00;;;;;;;18.19;37.76;102740.34;5059748;28;20036;-82
2020/12/01 05:18:15;;;;;;;15.55;4.22;;;;;;;18.37;37.20;102732.97;5075829;28;20024;-83
2020/12/01 05:20:44;;;;;;;11.02;3.75;;;;;;;17.53;38.79;102730.88;5079624;28;20056;-96
2020/12/01 05:23:11;;;;;;;10.63;3.22;;;;;;;17.67;38.69;102736.38;5074030;28;20040;-94
2020/12/01 05:25:37;;;;;;;10.10;3.97;;;;;;;17.58;38.87;102736.31;5075403;28;20510;-82
2020/12/01 05:28:12;;;;;;;19.17;3.85;;;;;;;18.14;37.50;102739.69;5108128;28;20056;-84
2020/12/01 05:30:39;;;;;;;12.60;3.72;;;;;;;18.17;37.48;102745.41;5074626;28;20029;-83
2020/12/01 05:33:25;;;;;;;13.68;3.40;;;;;;;18.21;37.45;102748.34;5075493;28;20497;-84
2020/12/01 05:36:05;;;;;;;11.05;3.58;;;;;;;18.03;37.61;102739.13;5075472;28;20033;-93
2020/12/01 05:38:32;;;;;;;15.68;3.90;;;;;;;17.58;38.63;102743.78;5075182;28;20099;-95
2020/12/01 05:41:15;;;;;;;9.40;3.83;;;;;;;17.26;39.29;102748.38;5074241;28;20092;-94
2020/12/01 05:43:40;;;;;;;14.15;4.45;;;;;;;17.54;38.86;102753.84;5073986;28;20029;-83
2020/12/01 05:46:40;;;;;;;11.23;3.80;;;;;;;17.57;38.91;102753.22;5074065;28;20028;-82
2020/12/01 05:49:35;;;;;;;7.55;3.42;;;;;;;17.67;38.95;102764.84;5074122;28;20025;-95
2020/12/01 05:52:11;;;;;;;15.48;3.95;;;;;;;17.29;39.24;102775.38;5074132;28;20033;-95
2020/12/01 05:54:40;;;;;;;13.32;3.95;;;;;;;17.39;39.42;102777.09;5074528;28;20028;-94
2020/12/01 05:57:20;;;;;;;10.55;3.75;;;;;;;17.51;39.33;102791.19;5075029;28;20027;-95
2020/12/01 05:59:55;;;;;;;11.00;3.65;;;;;;;17.42;39.57;102787.53;5073759;28;20082;-94
2020/12/01 06:02:51;;;;;;;17.48;4.25;;;;;;;17.40;39.52;102796.13;5073530;28;20113;-82
2020/12/01 06:05:22;;;;;;;11.02;4.03;;;;;;;17.59;39.29;102789.63;5074044;28;20039;-83
2020/12/01 06:07:49;;;;;;;12.15;3.25;;;;;;;17.49;39.50;102796.22;5073224;28;20028;-83
2020/12/01 06:10:18;;;;;;;14.23;3.95;;;;;;;18.09;38.43;102803.44;5074361;28;20157;-95
2020/12/01 06:13:05;;;;;;;15.98;5.32;;;;;;;18.12;38.13;102797.25;5073507;28;20036;-87
2020/12/01 06:15:33;;;;;;;15.90;4.53;;;;;;;18.06;38.23;102804.91;5073396;28;20395;-95
2020/12/01 06:18:05;;;;;;;13.25;3.78;;;;;;;17.55;39.20;102805.22;5073113;28;20033;-83
2020/12/01 06:20:38;;;;;;;11.75;3.60;;;;;;;18.07;38.41;102806.53;5073078;28;20028;-82
2020/12/01 06:23:23;;;;;;;10.15;3.55;;;;;;;18.25;38.09;102808.28;5073242;28;20040;-94
2020/12/01 06:26:10;;;;;;;9.27;4.90;;;;;;;18.22;38.07;102806.16;5074633;28;20035;-94
2020/12/01 06:28:45;;;;;;;10.07;3.92;;;;;;;18.11;38.35;102807.50;5074583;28;20560;-94
2020/12/01 06:31:47;;;;;;;14.07;4.63;;;;;;;17.52;39.77;102806.66;5073466;28;20204;-95
2020/12/01 06:34:32;;;;;;;13.80;4.72;;;;;;;17.37;40.02;102820.78;5073167;28;20086;-94
2020/12/01 06:37:27;;;;;;;10.88;3.60;;;;;;;17.68;39.48;102810.72;5073251;28;20372;-83
2020/12/01 06:40:11;;;;;;;13.68;4.47;;;;;;;18.02;38.76;102809.41;5074294;28;20063;-82
2020/12/01 06:42:51;;;;;;;11.63;3.95;;;;;;;18.07;38.57;102822.31;5073441;28;20032;-94
2020/12/01 06:45:31;;;;;;;9.13;3.60;;;;;;;18.24;38.17;102828.78;5073339;28;20036;-88
2020/12/01 06:48:05;;;;;;;16.67;4.75;;;;;;;18.28;38.23;102831.72;5106847;28;20027;-83
2020/12/01 06:50:34;;;;;;;7.95;3.40;;;;;;;18.61;37.38;102840.56;5072875;28;20170;-93
2020/12/01 06:53:03;;;;;;;13.27;3.83;;;;;;;18.55;37.69;102837.13;5074083;28;20103;-95
2020/12/01 06:55:59;;;;;;;13.65;4.20;;;;;;;18.52;37.88;102836.94;5073240;28;20025;-95
2020/12/01 06:58:25;;;;;;;11.88;4.13;;;;;;;18.78;37.39;102831.56;5073955;28;20031;-83
2020/12/01 07:01:18;;;;;;;13.35;3.45;;;;;;;18.44;37.94;102843.22;5073093;28;20036;-83
2020/12/01 07:03:46;;;;;;;9.77;3.38;;;;;;;18.76;37.35;102848.50;5074210;28;20025;-93
2020/12/01 07:06:21;;;;;;;8.82;3.80;;;;;;;18.84;37.10;102833.06;5074039;28;20036;-83
2020/12/01 07:08:48;;;;;;;12.52;4.13;;;;;;;18.73;37.45;102837.25;5073173;28;20032;-91
2020/12/01 07:11:29;;;;;;;8.48;3.13;;;;;;;18.76;37.68;102839.38;5074156;28;20029;-83
2020/12/01 07:14:02;;;;;;;10.45;3.35;;;;;;;18.71;37.67;102843.09;5073641;28;20077;-91
2020/12/01 07:16:44;;;;;;;10.80;3.53;;;;;;;18.40;38.29;102851.34;5073752;28;20029;-95
2020/12/01 07:19:36;;;;;;;16.83;3.70;;;;;;;18.50;37.94;102851.09;5072852;28;20017;-94
2020/12/01 07:22:24;;;;;;;12.32;4.93;;;;;;;17.41;40.32;102855.81;5072715;28;20639;-87
2020/12/01 07:25:03;;;;;;;14.70;5.38;;;;;;;17.68;39.81;102852.19;5072399;28;20503;-83
2020/12/01 07:28:04;;;;;;;9.27;3.47;;;;;;;17.74;39.86;102852.91;5073106;28;20048;-83
2020/12/01 07:30:34;;;;;;;11.20;4.55;;;;;;;17.77;39.57;102845.97;5073396;28;20029;-96
2020/12/01 07:33:06;;;;;;;17.80;4.85;;;;;;;17.57;39.89;102853.53;5057468;28;20032;-82
2020/12/01 07:35:38;;;;;;;16.52;4.20;;;;;;;17.47;40.17;102845.47;5072320;28;20050;-94
2020/12/01 07:38:10;;;;;;;9.55;4.15;;;;;;;17.53;40.03;102846.97;5071923;28;20028;-84
2020/12/01 07:40:46;;;;;;;16.98;8.07;;;;;;;17.67;40.10;102841.41;5071929;28;20024;-85
2020/12/01 07:43:15;;;;;;;18.83;14.55;;;;;;;17.84;39.66;102849.13;5070444;28;20039;-84
2020/12/01 07:45:41;;;;;;;21.08;15.63;;;;;;;18.13;38.86;102848.69;5071589;28;20471;-92
2020/12/01 07:48:12;;;;;;;25.00;16.73;;;;;;;18.05;39.11;102852.22;5071982;28;20024;-84
2020/12/01 07:50:37;;;;;;;29.02;19.98;;;;;;;18.27;38.62;102846.69;5072201;28;20029;-83
2020/12/01 07:53:08;;;;;;;24.73;16.77;;;;;;;18.21;38.87;102854.31;5072337;28;20051;-84
2020/12/01 07:55:41;;;;;;;31.00;19.88;;;;;;;18.22;38.60;102844.88;5072586;28;20032;-84
2020/12/01 07:58:15;;;;;;;23.30;16.20;;;;;;;18.14;38.96;102847.59;5072625;28;20394;-82
2020/12/01 08:00:41;;;;;;;21.75;15.52;;;;;;;18.29;38.57;102856.34;5072673;28;20036;-83
2020/12/01 08:03:19;;;;;;;18.63;13.52;;;;;;;18.28;38.79;102857.44;5073249;28;20025;-83
2020/12/01 08:05:46;;;;;;;19.73;11.27;;;;;;;18.08;39.08;102851.59;5071842;28;20029;-82
2020/12/01 08:08:16;;;;;;;16.00;9.77;;;;;;;17.92;39.48;102843.66;5072063;28;20204;-83
2020/12/01 08:10:46;;;;;;;13.13;7.82;;;;;;;17.91;39.73;102844.78;5071779;28;20040;-88
2020/12/01 08:13:12;;;;;;;;;;;;;;;17.78;39.82;102845.66;5072689;28;20050;-83
2020/12/01 08:15:38;;;;;;;12.60;5.13;;;;;;;17.62;40.43;102842.38;5072002;28;19912;-83
2020/12/01 08:18:05;;;;;;;15.32;5.47;;;;;;;17.35;40.88;102823.88;5072340;28;20368;-84
2020/12/01 08:20:32;;;;;;;10.95;4.60;;;;;;;17.31;40.97;102836.69;5071638;28;20029;-91
2020/12/01 08:23:13;;;;;;;13.48;5.72;;;;;;;17.45;41.01;102844.94;5071547;28;20054;-82
2020/12/01 08:25:38;;;;;;;11.52;3.72;;;;;;;17.72;40.29;102839.41;5066416;28;20036;-84
2020/12/01 08:28:33;;;;;;;9.30;3.35;;;;;;;17.73;40.15;102842.97;5074260;28;20024;-83
2020/12/01 08:31:10;;;;;;;16.25;4.57;;;;;;;18.06;39.57;102840.00;5074880;28;20031;-84
2020/12/01 08:33:47;;;;;;;10.85;3.83;;;;;;;17.92;39.65;102838.13;5075488;28;20032;-92
2020/12/01 08:36:45;;;;;;;11.00;3.20;;;;;;;18.26;38.99;102825.69;5062234;28;20060;-85
2020/12/01 08:39:26;;;;;;;14.30;3.67;;;;;;;18.35;38.80;102822.97;5057068;28;20036;-85
2020/12/01 08:42:17;;;;;;;15.23;4.32;;;;;;;18.51;38.32;102832.53;5058784;28;20082;-89
2020/12/01 08:44:56;;;;;;;12.70;4.13;;;;;;;18.67;38.03;102836.59;5059889;28;20055;-82
2020/12/01 08:47:23;;;;;;;8.55;2.92;;;;;;;18.76;37.68;102842.97;5059641;28;20436;-82
2020/12/01 08:49:51;;;;;;;13.48;3.70;;;;;;;18.67;38.03;102842.13;5059044;28;20013;-89
2020/12/01 08:52:29;;;;;;;15.23;3.45;;;;;;;18.74;37.79;102836.94;5057895;28;20055;-87
2020/12/01 08:55:13;;;;;;;11.68;3.97;;;;;;;18.79;37.43;102839.56;5061964;28;20028;-88
2020/12/01 08:57:40;;;;;;;10.40;3.38;;;;;;;18.88;37.52;102841.56;5059461;28;20386;-85
2020/12/01 09:00:16;;;;;;;13.68;4.00;;;;;;;18.58;38.26;102842.00;5061790;28;20020;-86
2020/12/01 09:02:45;;;;;;;8.77;3.80;;;;;;;18.82;37.99;102849.19;5061914;28;20090;-89
2020/12/01 09:05:29;;;;;;;8.95;3.40;;;;;;;19.00;37.53;102844.56;5060461;28;20036;-86
2020/12/01 09:14:23;;;;;;;11.45;4.20;;;;;;;18.39;39.32;102852.50;5061271;28;20051;-85
2020/12/01 09:22:20;;;;;;;11.68;3.65;;;;;;;18.57;38.44;102845.91;5076683;28;20107;-86
2020/12/01 09:24:45;;;;;;;22.85;15.73;;;;;;;18.64;38.59;102834.41;5059691;28;20036;-84
2020/12/01 09:27:13;;;;;;;12.02;3.50;;;;;;;18.88;38.20;102838.78;5062852;28;20032;-86
2020/12/01 09:29:48;;;;;;;16.02;3.58;;;;;;;18.92;38.12;102839.78;5061717;28;20017;-84
2020/12/01 09:32:25;;;;;;;9.07;3.80;;;;;;;17.90;40.32;102839.56;5061326;28;20044;-84
2020/12/01 09:34:51;;;;;;;13.05;4.10;;;;;;;18.11;40.30;102837.94;5061173;28;20033;-93
2020/12/01 09:37:18;;;;;;;9.65;3.75;;;;;;;18.62;39.10;102831.13;5073633;28;20021;-88
2020/12/01 09:39:44;;;;;;;11.75;4.13;;;;;;;18.40;39.33;102828.38;5073610;28;20511;-90
2020/12/01 09:42:35;;;;;;;15.40;3.80;;;;;;;18.73;38.94;102829.75;5073454;28;20074;-88
2020/12/01 09:45:09;;;;;;;9.73;4.03;;;;;;;18.78;38.46;102829.63;5065988;28;20036;-95
2020/12/01 09:50:00;;;;;;;10.35;3.13;;;;;;;18.90;38.54;102826.28;5074782;28;20019;-88
2020/12/01 09:52:33;;;;;;;11.70;3.88;;;;;;;18.61;39.12;102829.50;5073957;28;20029;-89
2020/12/01 09:55:08;;;;;;;13.48;4.43;;;;;;;18.17;40.01;102833.13;5073554;28;20048;-88
2020/12/01 10:07:37;;;;;;;13.55;4.22;;;;;;;18.23;40.16;102840.97;5055921;28;20438;-88
2020/12/01 10:08:59;;;;;;;12.27;4.43;;;;;;;17.82;41.56;102845.81;5054927;28;20025;-88
2020/12/01 10:29:10;;;;;;;12.45;5.45;;;;;;;18.25;41.62;102847.00;5070953;28;20371;-81
2020/12/01 10:35:52;;;;;;;13.52;4.32;;;;;;;18.48;41.25;102847.00;5069266;28;20545;-80
2020/12/01 10:38:17;;;;;;;12.25;4.60;;;;;;;18.64;41.15;102834.41;5070934;28;20024;-81
2020/12/01 10:40:43;;;;;;;13.43;5.18;;;;;;;18.94;40.61;102837.50;5071539;28;20110;-78
2020/12/01 10:43:09;;;;;;;15.05;6.15;;;;;;;18.76;41.30;102829.13;5070431;28;20023;-79
2020/12/01 10:45:34;;;;;;;14.30;6.07;;;;;;;19.17;40.70;102824.41;5069947;28;20036;-85
2020/12/01 10:48:00;;;;;;;12.15;5.90;;;;;;;19.16;40.70;102829.13;5069822;28;20058;-80
2020/12/01 10:50:30;;;;;;;19.50;6.35;;;;;;;19.02;41.05;102831.19;5069851;28;20474;-84
2020/12/01 10:52:56;;;;;;;15.73;5.35;;;;;;;18.95;41.42;102831.66;5068783;28;20473;-80
2020/12/01 10:55:29;;;;;;;15.35;6.45;;;;;;;18.90;41.83;102825.44;5070332;28;20039;-82
2020/12/01 10:57:56;;;;;;;10.88;5.47;;;;;;;19.22;41.10;102819.53;5072836;28;20136;-81
2020/12/01 11:00:23;;;;;;;18.13;10.13;;;;;;;19.33;41.20;102815.31;5071460;28;20021;-80
2020/12/01 11:02:49;;;;;;;10.68;6.15;;;;;;;19.73;40.51;102820.81;5070656;28;20021;-80
2020/12/01 11:05:18;;;;;;;12.40;6.15;;;;;;;19.84;40.25;102815.75;5071306;28;20032;-81
2020/12/01 11:07:44;;;;;;;12.00;5.10;;;;;;;19.71;40.73;102814.75;5071771;28;20029;-80
2020/12/01 11:10:10;;;;;;;15.10;5.10;;;;;;;19.54;41.57;102811.94;5071241;28;20024;-80
2020/12/01 11:12:35;;;;;;;11.18;4.88;;;;;;;19.32;42.21;102805.34;5070804;28;20481;-83
2020/12/01 11:15:02;;;;;;;10.85;5.10;;;;;;;19.18;42.68;102807.44;5070884;28;20514;-82
2020/12/01 11:17:28;;;;;;;14.82;5.05;;;;;;;19.31;42.22;102808.47;5071703;28;20060;-79
2020/12/01 11:19:53;;;;;;;18.92;6.72;;;;;;;19.38;42.49;102808.81;5071353;28;20035;-79
2020/12/01 11:22:19;;;;;;;15.00;6.57;;;;;;;19.39;42.55;102797.38;5072825;28;20024;-85
2020/12/01 11:24:44;;;;;;;15.55;8.63;;;;;;;19.59;42.11;102797.94;5072248;28;20052;-78
2020/12/01 11:27:10;;;;;;;17.98;8.40;;;;;;;19.29;42.88;102803.25;5072052;28;20060;-85
2020/12/01 11:29:36;;;;;;;20.27;10.23;;;;;;;19.74;41.80;102796.66;5072892;28;20020;-78
2020/12/01 11:32:03;;;;;;;29.38;10.90;;;;;;;19.53;42.51;102790.91;5071899;28;20035;-81
2020/12/01 11:34:29;;;;;;;21.70;11.88;;;;;;;19.71;42.19;102789.78;5072594;28;20103;-77
2020/12/01 11:36:55;;;;;;;17.15;12.65;;;;;;;19.78;42.13;102780.97;5072379;28;20100;-78
2020/12/01 11:39:21;;;;;;;22.30;13.55;;;;;;;19.77;42.08;102779.34;5072007;28;20021;-82
2020/12/01 11:41:47;;;;;;;22.38;14.48;;;;;;;20.02;41.46;102774.91;5071522;28;20070;-77
2020/12/01 11:44:13;;;;;;;20.02;13.23;;;;;;;19.79;42.06;102771.50;5072212;28;20052;-77
2020/12/01 11:46:40;;;;;;;17.38;12.13;;;;;;;19.90;41.91;102764.50;5072352;28;20021;-77
2020/12/01 11:49:06;;;;;;;20.83;11.98;;;;;;;19.77;42.23;102777.38;5071447;28;20054;-78
2020/12/01 11:51:33;;;;;;;15.82;11.10;;;;;;;19.89;41.78;102768.44;5071207;28;20028;-78
2020/12/01 11:54:00;;;;;;;21.20;11.45;;;;;;;19.68;42.43;102774.63;5072564;28;20441;-80
2020/12/01 11:56:25;;;;;;;17.98;11.30;;;;;;;19.60;42.63;102769.88;5071185;28;20055;-78
2020/12/01 11:58:51;;;;;;;21.48;10.98;;;;;;;19.85;42.07;102759.13;5071580;28;20170;-78
2020/12/01 12:01:18;;;;;;;18.83;11.32;;;;;;;19.92;41.97;102759.44;5074254;28;20021;-79
2020/12/01 12:03:43;;;;;;;13.30;9.82;;;;;;;19.66;42.64;102751.13;5074633;28;20507;-78
2020/12/01 12:06:10;;;;;;;16.08;9.40;;;;;;;19.88;42.08;102730.72;5075618;28;20063;-82
2020/12/01 12:08:36;;;;;;;17.90;10.82;;;;;;;19.89;41.96;102755.38;5075575;28;20028;-84
2020/12/01 12:11:02;;;;;;;18.65;10.27;;;;;;;19.71;42.64;102752.91;5076128;28;20031;-81
2020/12/01 12:13:28;;;;;;;15.00;9.23;;;;;;;19.80;42.19;102749.03;5075796;28;20033;-83
2020/12/01 12:15:54;;;;;;;12.88;7.85;;;;;;;19.75;42.42;102743.63;5074724;28;20115;-84
2020/12/01 12:18:19;;;;;;;11.15;6.35;;;;;;;20.00;41.82;102744.72;5075098;28;20127;-80